Time;durP1;ratioP1;P1;durP2;ratioP2;P2;SDS_P1;SDS_P2;PMS_P1;PMS_P2;Temp;Humidity;BMP_temperature;BMP_pressure;BME280_temperature;BME280_humidity;BME280_pressure;Samples;Min_cycle;Max_cycle;Signal;HPM_P1;HPM_P2
2022/01/16 00:00:20;;;;;;;45.10;17.38;;;;;;;1.97;100.00;98745.22;5068640;28;20062;-58
2022/01/16 00:05:23;;;;;;;45.67;16.95;;;;;;;1.64;100.00;98767.31;5064597;28;20110;-57
2022/01/16 00:07:48;;;;;;;36.60;16.15;;;;;;;2.11;100.00;98748.72;5057788;28;20024;-55
2022/01/16 00:10:17;;;;;;;37.35;16.20;;;;;;;2.02;100.00;98725.53;5056813;28;20051;-57
2022/01/16 00:12:47;;;;;;;41.78;16.48;;;;;;;2.03;100.00;98724.66;5058010;28;20125;-57
2022/01/16 00:15:13;;;;;;;39.83;16.85;;;;;;;1.87;100.00;98738.28;5057406;28;20024;-56
2022/01/16 00:17:48;;;;;;;38.42;16.80;;;;;;;1.91;100.00;98740.03;5057711;28;20021;-57
2022/01/16 00:20:14;;;;;;;45.20;17.98;;;;;;;1.92;100.00;98745.19;5057155;28;20029;-57
2022/01/16 00:22:41;;;;;;;41.10;16.45;;;;;;;1.86;100.00;98747.72;5057708;28;20080;-57
2022/01/16 00:25:07;;;;;;;38.17;15.70;;;;;;;2.34;100.00;98735.09;5057182;28;20064;-57
2022/01/16 00:27:33;;;;;;;38.35;16.52;;;;;;;2.02;100.00;98733.25;5057816;28;20032;-58
2022/01/16 00:29:58;;;;;;;42.75;18.23;;;;;;;1.77;100.00;98727.09;5057422;28;20383;-58
2022/01/16 00:32:23;;;;;;;42.67;16.00;;;;;;;1.80;100.00;98705.66;5056736;28;20637;-58
2022/01/16 00:34:49;;;;;;;43.45;17.73;;;;;;;1.80;100.00;98696.25;5057430;28;20132;-58
2022/01/16 00:37:14;;;;;;;44.28;17.52;;;;;;;1.82;100.00;98673.97;5055427;28;20804;-58
2022/01/16 00:39:39;;;;;;;48.80;18.88;;;;;;;2.06;100.00;98683.50;5057490;28;20453;-58
2022/01/16 00:42:05;;;;;;;48.92;18.77;;;;;;;1.84;100.00;98671.38;5056589;28;20033;-57
2022/01/16 00:44:30;;;;;;;49.67;18.67;;;;;;;1.70;100.00;98682.47;5057256;28;20115;-57
2022/01/16 00:46:56;;;;;;;65.55;19.63;;;;;;;1.77;100.00;98690.22;5056669;28;20060;-57
2022/01/16 00:49:21;;;;;;;53.15;18.80;;;;;;;1.87;100.00;98703.13;5057441;28;20115;-57
2022/01/16 00:51:47;;;;;;;57.40;19.60;;;;;;;2.01;100.00;98695.47;5054957;28;20047;-59
2022/01/16 00:54:12;;;;;;;60.90;18.55;;;;;;;1.92;100.00;98690.31;5057108;28;20592;-56
2022/01/16 00:56:37;;;;;;;53.80;17.15;;;;;;;1.84;100.00;98679.09;5056431;28;20036;-56
2022/01/16 00:59:03;;;;;;;59.63;20.42;;;;;;;1.77;100.00;98675.66;5056776;28;20227;-57
2022/01/16 01:01:28;;;;;;;57.22;18.20;;;;;;;1.64;100.00;98692.72;5055353;28;20039;-58
2022/01/16 01:03:54;;;;;;;56.47;18.75;;;;;;;1.53;100.00;98678.94;5055659;28;20433;-58
2022/01/16 01:06:19;;;;;;;66.30;18.92;;;;;;;1.22;100.00;98678.75;5056076;28;20102;-56
2022/01/16 01:08:45;;;;;;;70.90;21.35;;;;;;;1.38;100.00;98668.56;5056720;28;20115;-57
2022/01/16 01:11:15;;;;;;;55.72;16.45;;;;;;;1.32;100.00;98685.69;5055507;28;20060;-57
2022/01/16 01:14:26;;;;;;;66.45;19.00;;;;;;;1.17;100.00;98698.41;5046653;28;20036;-57
2022/01/16 01:16:48;;;;;;;54.42;15.27;;;;;;;1.01;100.00;98711.97;5034472;28;20602;-56
2022/01/16 01:19:14;;;;;;;45.50;12.70;;;;;;;0.89;100.00;98685.31;5043303;28;20050;-56
2022/01/16 01:21:39;;;;;;;66.30;16.65;;;;;;;0.86;100.00;98687.00;5042026;28;20406;-57
2022/01/16 01:24:05;;;;;;;62.10;15.05;;;;;;;0.76;100.00;98675.78;5042968;28;20604;-57
2022/01/16 01:26:36;;;;;;;49.22;13.57;;;;;;;0.81;100.00;98630.47;5042580;28;20068;-58
2022/01/16 01:29:03;;;;;;;44.13;11.95;;;;;;;0.97;100.00;98598.03;5043339;28;20104;-57
2022/01/16 01:31:29;;;;;;;52.35;13.90;;;;;;;1.13;100.00;98588.75;5040383;28;20751;-57
2022/01/16 01:33:55;;;;;;;49.70;13.90;;;;;;;1.23;100.00;98595.66;5043215;28;20218;-58
2022/01/16 01:36:21;;;;;;;47.50;13.18;;;;;;;1.42;100.00;98585.47;5042497;28;20040;-57
2022/01/16 01:38:46;;;;;;;62.75;16.13;;;;;;;1.08;100.00;98587.84;5042679;28;20023;-57
2022/01/16 01:41:12;;;;;;;67.32;16.98;;;;;;;0.95;100.00;98639.13;5042065;28;20068;-58
2022/01/16 01:51:36;;;;;;;67.60;16.92;;;;;;;0.60;100.00;98679.06;5042025;28;20413;-58
2022/01/16 01:54:04;;;;;;;55.90;15.60;;;;;;;0.68;100.00;98682.56;5042523;28;20029;-57
2022/01/16 01:56:30;;;;;;;58.30;15.00;;;;;;;0.79;100.00;98691.25;5041382;28;20048;-58
2022/01/16 01:58:58;;;;;;;50.45;13.68;;;;;;;1.08;100.00;98683.75;5042379;28;20421;-57
2022/01/16 02:01:25;;;;;;;50.47;14.45;;;;;;;1.35;100.00;98672.81;5041355;28;20041;-57
2022/01/16 02:03:50;;;;;;;50.47;14.35;;;;;;;1.38;100.00;98673.69;5042004;28;20025;-57
2022/01/16 02:06:19;;;;;;;53.35;14.90;;;;;;;1.01;100.00;98691.41;5041594;28;20040;-58
2022/01/16 02:08:47;;;;;;;54.58;16.30;;;;;;;0.82;100.00;98673.28;5040690;28;20033;-56
2022/01/16 02:11:14;;;;;;;59.33;16.52;;;;;;;0.86;100.00;98684.44;5041014;28;20420;-58
2022/01/16 02:35:25;;;;;;;36.78;11.43;;;;;;;1.27;100.00;98699.31;5041517;28;20033;-57
2022/01/16 02:37:50;;;;;;;31.50;9.82;;;;;;;1.52;100.00;98690.06;5040159;28;20029;-57
2022/01/16 02:40:17;;;;;;;32.47;10.80;;;;;;;1.07;100.00;98681.19;5041320;28;20075;-57
2022/01/16 02:42:49;;;;;;;36.88;11.93;;;;;;;1.14;100.00;98682.97;5041567;28;20074;-57
2022/01/16 02:45:27;;;;;;;35.53;11.20;;;;;;;1.24;100.00;98684.75;5041192;28;20036;-56
2022/01/16 02:47:54;;;;;;;37.70;12.93;;;;;;;1.19;100.00;98672.72;5041137;28;20040;-56
2022/01/16 02:50:21;;;;;;;45.22;13.30;;;;;;;0.95;100.00;98680.22;5040921;28;20029;-56
2022/01/16 02:52:46;;;;;;;41.30;12.30;;;;;;;1.12;100.00;98690.66;5040944;28;20025;-57
2022/01/16 02:55:14;;;;;;;35.53;11.30;;;;;;;1.22;100.00;98671.03;5041116;28;20090;-58
2022/01/16 02:57:39;;;;;;;39.53;12.50;;;;;;;1.14;100.00;98667.56;5041430;28;20025;-59
2022/01/16 03:00:05;;;;;;;34.17;11.15;;;;;;;0.85;100.00;98670.75;5041061;28;20044;-57
2022/01/16 03:02:31;;;;;;;40.80;12.18;;;;;;;1.25;100.00;98660.78;5040198;28;20045;-57
2022/01/16 03:04:56;;;;;;;26.98;8.75;;;;;;;1.40;100.00;98659.13;5041288;28;20029;-58
2022/01/16 03:07:22;;;;;;;34.67;10.75;;;;;;;1.22;100.00;98663.31;5040511;28;20045;-56
2022/01/16 03:12:35;;;;;;;33.60;11.20;;;;;;;0.87;100.00;98663.91;5040518;28;20037;-58
2022/01/16 03:15:01;;;;;;;39.60;11.68;;;;;;;1.03;100.00;98661.44;5041025;28;20028;-57
2022/01/16 03:17:38;;;;;;;51.47;13.30;;;;;;;0.96;100.00;98663.97;5040529;28;20506;-56
2022/01/16 03:23:06;;;;;;;38.17;11.80;;;;;;;0.83;100.00;98653.56;4984255;28;20060;-58
2022/01/16 03:25:31;;;;;;;37.25;11.80;;;;;;;1.15;100.00;98649.56;5028979;28;20037;-58
2022/01/16 03:27:57;;;;;;;35.75;11.57;;;;;;;0.94;100.00;98639.16;5040982;28;20087;-57
2022/01/16 03:30:22;;;;;;;45.20;12.18;;;;;;;1.02;100.00;98641.75;5040270;28;20613;-56
2022/01/16 03:32:47;;;;;;;35.58;10.30;;;;;;;0.80;100.00;98636.44;5040368;28;20439;-58
2022/01/16 03:35:13;;;;;;;32.90;10.45;;;;;;;1.10;100.00;98635.84;5040412;28;20025;-58
2022/01/16 03:37:40;;;;;;;35.42;11.38;;;;;;;1.08;100.00;98631.53;5040546;28;20304;-56
2022/01/16 03:40:10;;;;;;;34.03;10.23;;;;;;;1.15;100.00;98630.72;5040830;28;20037;-56
2022/01/16 03:42:36;;;;;;;39.92;11.57;;;;;;;1.26;100.00;98630.78;5039673;28;20044;-56
2022/01/16 03:45:02;;;;;;;33.90;10.98;;;;;;;1.34;100.00;98622.28;5040549;28;20035;-58
2022/01/16 03:47:28;;;;;;;42.70;12.32;;;;;;;1.06;100.00;98625.50;5039115;28;20102;-58
2022/01/16 03:49:53;;;;;;;36.20;11.82;;;;;;;1.00;100.00;98628.06;5038830;28;20056;-58
2022/01/16 03:52:19;;;;;;;37.83;11.30;;;;;;;0.90;100.00;98627.09;5039493;28;20709;-57
2022/01/16 03:54:44;;;;;;;36.65;11.63;;;;;;;0.89;100.00;98626.25;5040466;28;20398;-57
2022/01/16 03:57:09;;;;;;;39.80;12.10;;;;;;;1.04;100.00;98619.50;5038689;28;20036;-57
2022/01/16 03:59:35;;;;;;;37.50;10.50;;;;;;;0.60;100.00;98622.59;5040111;28;20033;-57
2022/01/16 04:02:00;;;;;;;38.78;11.38;;;;;;;0.81;100.00;98632.16;5039381;28;20079;-57
2022/01/16 04:04:26;;;;;;;37.40;10.88;;;;;;;1.00;100.00;98633.19;5040151;28;20056;-57
2022/01/16 04:06:52;;;;;;;37.97;11.35;;;;;;;1.07;100.00;98622.09;5039951;28;20597;-57
2022/01/16 04:09:17;;;;;;;37.85;10.50;;;;;;;0.91;100.00;98623.69;5038899;28;20021;-59
2022/01/16 04:11:54;;;;;;;31.42;10.07;;;;;;;0.69;100.00;98625.22;5039693;28;20590;-57
2022/01/16 04:17:12;;;;;;;41.90;11.07;;;;;;;0.99;100.00;98616.03;5029042;28;20040;-57
2022/01/16 04:19:38;;;;;;;35.88;10.57;;;;;;;0.82;100.00;98619.34;5040047;28;20478;-58
2022/01/16 04:22:03;;;;;;;37.33;10.40;;;;;;;0.80;100.00;98628.75;5039479;28;20120;-58
2022/01/16 04:24:29;;;;;;;43.35;11.07;;;;;;;1.06;100.00;98628.09;5039893;28;20098;-57
2022/01/16 04:26:54;;;;;;;47.13;12.23;;;;;;;1.10;100.00;98604.13;5039825;28;20171;-57
2022/01/16 04:29:20;;;;;;;37.45;10.98;;;;;;;0.93;100.00;98602.28;5039747;28;20033;-58
2022/01/16 04:31:45;;;;;;;37.92;10.73;;;;;;;1.09;100.00;98600.69;5039387;28;20037;-57
2022/01/16 04:34:10;;;;;;;39.20;11.05;;;;;;;0.78;100.00;98602.19;5040146;28;20094;-58
2022/01/16 04:36:37;;;;;;;43.33;11.30;;;;;;;0.44;100.00;98596.78;5039316;28;20052;-58
2022/01/16 04:39:09;;;;;;;38.30;10.98;;;;;;;0.73;100.00;98601.28;5039904;28;20033;-57
2022/01/16 04:44:18;;;;;;;37.88;11.70;;;;;;;0.98;100.00;98597.22;5039753;28;19920;-58
2022/01/16 04:46:46;;;;;;;169.82;15.57;;;;;;;0.93;100.00;98597.16;5039797;28;20041;-57
2022/01/16 04:49:11;;;;;;;38.50;11.18;;;;;;;1.13;100.00;98593.88;5042899;28;20074;-58
2022/01/16 04:51:37;;;;;;;34.15;10.50;;;;;;;1.18;100.00;98592.19;5042787;28;20037;-56
2022/01/16 04:54:02;;;;;;;36.78;11.00;;;;;;;1.33;100.00;98604.28;5043469;28;20038;-58
2022/01/16 04:56:28;;;;;;;19.90;6.30;;;;;;;1.56;100.00;98604.38;5043189;28;20037;-57
2022/01/16 04:58:53;;;;;;;40.33;10.88;;;;;;;1.22;100.00;98599.06;5043555;28;20316;-58
2022/01/16 05:01:19;;;;;;;29.67;9.45;;;;;;;1.57;100.00;98610.41;5042437;28;20481;-57
2022/01/16 05:03:44;;;;;;;38.40;10.20;;;;;;;0.79;100.00;98603.03;5043156;28;20035;-58
2022/01/16 05:06:10;;;;;;;37.05;11.50;;;;;;;1.15;100.00;98599.88;5041654;28;20663;-58
2022/01/16 05:08:35;;;;;;;31.23;9.30;;;;;;;1.24;100.00;98602.50;5043359;28;20041;-57
2022/01/16 05:11:01;;;;;;;39.35;11.23;;;;;;;1.14;100.00;98600.75;5035153;28;20036;-58
2022/01/16 05:18:40;;;;;;;41.33;11.52;;;;;;;1.02;100.00;98613.50;5043564;28;20147;-57
2022/01/16 05:21:07;;;;;;;35.97;10.85;;;;;;;1.45;100.00;98619.78;5042159;28;20041;-57
2022/01/16 05:23:34;;;;;;;24.73;7.07;;;;;;;2.29;100.00;98626.94;5043000;28;20803;-57
2022/01/16 05:26:01;;;;;;;220.48;16.70;;;;;;;1.95;100.00;98632.84;5042753;28;20037;-59
2022/01/16 05:28:27;;;;;;;56.33;11.45;;;;;;;1.48;100.00;98626.63;5043355;28;20036;-57
2022/01/16 05:30:53;;;;;;;33.42;11.10;;;;;;;1.68;100.00;98630.16;5042505;28;20090;-57
2022/01/16 05:33:18;;;;;;;30.83;9.48;;;;;;;1.43;100.00;98633.47;5042787;28;20033;-59
2022/01/16 05:35:44;;;;;;;33.78;10.88;;;;;;;1.45;100.00;98631.75;5042386;28;20342;-58
2022/01/16 05:38:10;;;;;;;33.42;11.45;;;;;;;1.44;100.00;98632.63;5042857;28;20078;-57
2022/01/16 05:40:36;;;;;;;32.20;11.13;;;;;;;1.49;100.00;98633.47;5042035;28;20898;-58
2022/01/16 05:43:01;;;;;;;78.15;11.65;;;;;;;1.47;100.00;98636.06;5042027;28;20136;-57
2022/01/16 05:45:27;;;;;;;175.80;15.85;;;;;;;2.31;100.00;98643.25;5042000;28;20198;-57
2022/01/16 05:47:53;;;;;;;34.72;10.45;;;;;;;1.99;100.00;98650.88;5042727;28;20647;-57
2022/01/16 05:50:18;;;;;;;78.88;12.55;;;;;;;1.59;100.00;98645.53;5041979;28;20024;-58
2022/01/16 05:52:44;;;;;;;31.45;11.27;;;;;;;1.37;100.00;98644.56;5041864;28;20021;-58
2022/01/16 05:55:10;;;;;;;655.90;32.67;;;;;;;1.60;100.00;98642.13;5042137;28;20120;-59
2022/01/16 05:57:36;;;;;;;1887.10;75.93;;;;;;;2.09;100.00;98650.03;5042682;28;20032;-57
2022/01/16 06:00:03;;;;;;;56.08;10.73;;;;;;;1.35;100.00;98636.00;5042146;28;20029;-58
2022/01/16 06:02:28;;;;;;;35.58;11.60;;;;;;;1.42;100.00;98631.75;5041056;28;20033;-59
2022/01/16 06:04:54;;;;;;;31.92;10.27;;;;;;;1.93;100.00;98625.13;5042294;28;20037;-58
2022/01/16 06:07:19;;;;;;;304.48;17.92;;;;;;;1.46;100.00;98628.34;5041820;28;20068;-57
2022/01/16 06:09:45;;;;;;;84.97;12.90;;;;;;;1.58;100.00;98625.84;5042420;28;20216;-57
2022/01/16 06:12:11;;;;;;;48.97;11.48;;;;;;;2.39;100.00;98614.97;5041772;28;20072;-59
2022/01/16 06:14:36;;;;;;;61.40;11.40;;;;;;;1.74;100.00;98617.31;5041896;28;20041;-57
2022/01/16 06:17:02;;;;;;;50.75;11.43;;;;;;;2.06;100.00;98611.44;5041926;28;20106;-57
2022/01/16 06:19:27;;;;;;;37.10;11.60;;;;;;;1.48;100.00;98611.22;5042276;28;20036;-58
2022/01/16 06:21:53;;;;;;;30.42;10.68;;;;;;;1.43;100.00;98618.03;5041127;28;20500;-57
2022/01/16 06:24:18;;;;;;;27.95;9.73;;;;;;;1.19;100.00;98614.47;5042151;28;20100;-59
2022/01/16 06:26:43;;;;;;;28.05;9.90;;;;;;;1.56;100.00;98619.81;5041615;28;20403;-57
2022/01/16 06:29:09;;;;;;;32.70;9.95;;;;;;;1.40;100.00;98613.75;5042417;28;20063;-56
2022/01/16 06:31:35;;;;;;;28.75;9.52;;;;;;;1.33;100.00;98612.84;5041066;28;20028;-58
2022/01/16 06:34:02;;;;;;;30.05;9.93;;;;;;;1.37;100.00;98618.00;5042343;28;20016;-57
2022/01/16 06:36:28;;;;;;;108.32;11.38;;;;;;;1.40;100.00;98624.03;5040915;28;20086;-58
2022/01/16 06:38:54;;;;;;;65.65;11.07;;;;;;;1.70;100.00;98632.75;5041755;28;20460;-58
2022/01/16 06:41:20;;;;;;;27.73;9.20;;;;;;;1.25;100.00;98629.94;5040751;28;20044;-57
2022/01/16 06:43:46;;;;;;;28.98;9.10;;;;;;;1.60;100.00;98621.56;5041412;28;20028;-58
2022/01/16 06:46:11;;;;;;;26.08;8.88;;;;;;;1.46;100.00;98618.91;5039921;28;20798;-58
2022/01/16 06:48:37;;;;;;;29.23;9.32;;;;;;;1.58;100.00;98618.13;5040090;28;20028;-57
2022/01/16 06:51:03;;;;;;;26.20;8.13;;;;;;;2.28;100.00;98624.38;5040680;28;20033;-57
2022/01/16 06:53:29;;;;;;;23.20;8.70;;;;;;;1.77;100.00;98628.50;5041720;28;20025;-58
2022/01/16 06:55:54;;;;;;;32.92;9.70;;;;;;;1.51;100.00;98624.94;5040859;28;20048;-57
2022/01/16 06:58:19;;;;;;;34.72;10.80;;;;;;;1.54;100.00;98632.69;5041374;28;20722;-57
2022/01/16 07:00:46;;;;;;;29.50;9.07;;;;;;;1.69;100.00;98626.75;5040650;28;20045;-57
2022/01/16 07:03:13;;;;;;;29.10;9.52;;;;;;;1.70;100.00;98632.75;5041814;28;20033;-57
2022/01/16 07:05:39;;;;;;;26.13;8.57;;;;;;;1.76;100.00;98632.75;5040188;28;20029;-57
2022/01/16 07:08:05;;;;;;;29.98;8.85;;;;;;;1.80;100.00;98631.06;5041325;28;20036;-58
2022/01/16 07:10:30;;;;;;;28.38;8.77;;;;;;;2.00;100.00;98634.56;5040244;28;20094;-59
2022/01/16 07:12:55;;;;;;;26.75;10.10;;;;;;;1.67;100.00;98638.75;5040796;28;20405;-58
2022/01/16 07:15:21;;;;;;;29.85;10.55;;;;;;;1.87;100.00;98646.53;5040011;28;20064;-57
2022/01/16 07:17:46;;;;;;;28.05;8.85;;;;;;;1.30;100.00;98648.78;5041385;28;20156;-57
2022/01/16 07:20:14;;;;;;;124.70;13.55;;;;;;;2.23;100.00;98665.53;5040373;28;20535;-58
2022/01/16 07:22:39;;;;;;;760.40;34.20;;;;;;;2.14;100.00;98674.97;5037343;28;20025;-57
2022/01/16 07:25:05;;;;;;;999.10;41.33;;;;;;;2.68;100.00;98686.25;5040333;28;20043;-59
2022/01/16 07:27:30;;;;;;;70.13;11.70;;;;;;;2.27;100.00;98689.59;5040972;28;20028;-57
2022/01/16 07:29:56;;;;;;;356.30;21.63;;;;;;;2.85;100.00;98687.13;5040935;28;20191;-58
2022/01/16 07:32:21;;;;;;;288.73;20.67;;;;;;;3.04;100.00;98698.31;5039818;28;20696;-57
2022/01/16 07:34:46;;;;;;;1310.82;53.03;;;;;;;3.00;100.00;98717.22;5040491;28;20060;-57
2022/01/16 07:37:12;;;;;;;389.00;25.27;;;;;;;4.09;100.00;98713.63;5040094;28;20033;-58
2022/01/16 07:39:37;;;;;;;818.45;39.05;;;;;;;2.20;100.00;98717.00;5040858;28;20025;-57
2022/01/16 07:42:04;;;;;;;1743.90;64.03;;;;;;;3.76;100.00;98730.91;5040112;28;20033;-60
2022/01/16 07:44:29;;;;;;;313.60;18.05;;;;;;;2.24;100.00;98729.06;5036384;28;20033;-56
2022/01/16 07:46:54;;;;;;;234.50;18.13;;;;;;;3.54;100.00;98719.78;5038375;28;20047;-57
2022/01/16 07:49:20;;;;;;;1399.78;52.65;;;;;;;3.47;100.00;98723.22;5039781;28;20403;-58
2022/01/16 07:51:45;;;;;;;1589.97;63.17;;;;;;;3.05;100.00;98723.25;5039452;28;20037;-59
2022/01/16 07:54:10;;;;;;;1269.78;50.17;;;;;;;2.11;100.00;98717.84;5040064;28;20032;-58
2022/01/16 07:56:36;;;;;;;1009.85;52.63;;;;;;;4.27;100.00;98723.03;5039454;28;20163;-57
2022/01/16 07:59:01;;;;;;;1999.90;90.20;;;;;;;4.34;100.00;98718.72;5040145;28;20127;-58
2022/01/16 08:01:27;;;;;;;661.00;31.85;;;;;;;3.12;100.00;98716.34;5038811;28;20040;-59
2022/01/16 08:03:52;;;;;;;414.15;24.08;;;;;;;2.63;100.00;98706.84;5040088;28;20036;-57
2022/01/16 08:06:17;;;;;;;776.40;34.25;;;;;;;2.84;100.00;98707.75;5037292;28;20040;-57
2022/01/16 08:08:43;;;;;;;918.25;43.38;;;;;;;2.97;100.00;98706.88;5037235;28;20040;-57
2022/01/16 08:11:09;;;;;;;1534.38;71.95;;;;;;;4.71;100.00;98698.69;5037098;28;20029;-59
2022/01/16 08:13:35;;;;;;;1194.55;53.33;;;;;;;4.63;100.00;98715.94;5039073;28;20024;-58
2022/01/16 08:16:03;;;;;;;197.90;18.23;;;;;;;5.07;100.00;98716.53;5039123;28;20520;-57
2022/01/16 08:18:28;;;;;;;32.58;12.88;;;;;;;5.16;100.00;98722.50;5036155;28;20039;-56
2022/01/16 08:20:54;;;;;;;27.17;11.95;;;;;;;7.21;100.00;98719.28;5035220;28;20033;-57
2022/01/16 08:23:19;;;;;;;29.77;13.50;;;;;;;5.48;100.00;98689.50;5038420;28;20033;-57
2022/01/16 08:25:44;;;;;;;26.67;12.68;;;;;;;4.98;100.00;98686.44;5039630;28;20430;-56
2022/01/16 08:28:10;;;;;;;29.25;12.55;;;;;;;5.69;100.00;98691.00;5040321;28;20035;-56
2022/01/16 08:30:35;;;;;;;25.80;10.75;;;;;;;4.69;100.00;98684.94;5040126;28;20122;-58
2022/01/16 08:33:01;;;;;;;30.70;13.38;;;;;;;3.47;100.00;98692.25;5040578;28;20021;-58
2022/01/16 08:35:26;;;;;;;31.63;13.02;;;;;;;3.29;100.00;98695.75;5038129;28;20049;-58
2022/01/16 08:37:51;;;;;;;34.45;13.30;;;;;;;2.80;100.00;98690.56;5022646;28;20048;-58
2022/01/16 08:40:17;;;;;;;34.42;13.57;;;;;;;2.42;100.00;98688.75;5038922;28;20029;-63
2022/01/16 08:42:42;;;;;;;33.50;13.18;;;;;;;3.18;100.00;98688.00;5040495;28;20044;-61
2022/01/16 08:45:09;;;;;;;35.50;13.98;;;;;;;2.85;100.00;98692.28;5039711;28;20020;-58
2022/01/16 08:47:34;;;;;;;37.40;13.93;;;;;;;2.96;100.00;98694.88;5039152;28;20051;-60
2022/01/16 08:50:02;;;;;;;34.30;13.18;;;;;;;2.98;100.00;98697.44;5039186;28;20037;-60
2022/01/16 08:52:28;;;;;;;33.33;13.15;;;;;;;3.32;100.00;98689.72;5038048;28;20833;-62
2022/01/16 08:54:54;;;;;;;36.15;13.48;;;;;;;3.00;100.00;98685.44;5040162;28;20116;-60
2022/01/16 08:57:19;;;;;;;35.83;13.15;;;;;;;3.18;100.00;98690.59;5039659;28;20083;-61
2022/01/16 08:59:45;;;;;;;36.85;13.90;;;;;;;3.14;100.00;98695.72;5040244;28;20056;-62
2022/01/16 09:02:10;;;;;;;38.45;14.00;;;;;;;2.65;100.00;98699.97;5038992;28;20076;-59
2022/01/16 09:04:36;;;;;;;31.08;12.68;;;;;;;2.75;100.00;98694.84;5039534;28;20024;-63
2022/01/16 09:07:02;;;;;;;29.15;11.48;;;;;;;5.05;100.00;98713.09;5039501;28;20086;-59
2022/01/16 09:09:27;;;;;;;31.27;12.13;;;;;;;4.08;100.00;98718.78;5040130;28;20578;-57
2022/01/16 09:11:52;;;;;;;28.05;10.60;;;;;;;4.23;100.00;98708.41;5038981;28;20410;-59
2022/01/16 09:14:18;;;;;;;28.23;12.23;;;;;;;4.74;100.00;98703.84;5039814;28;20120;-58
2022/01/16 09:16:43;;;;;;;31.92;13.73;;;;;;;3.30;100.00;98704.31;5039115;28;20123;-58
2022/01/16 09:19:09;;;;;;;33.15;14.32;;;;;;;3.45;100.00;98699.16;5039416;28;20029;-59
2022/01/16 09:21:36;;;;;;;38.35;15.52;;;;;;;3.27;100.00;98700.91;5037813;28;20099;-61
2022/01/16 09:24:01;;;;;;;32.88;14.80;;;;;;;2.69;100.00;98695.69;5037910;28;20116;-59
2022/01/16 09:26:27;;;;;;;28.17;11.98;;;;;;;3.91;100.00;98704.22;5039436;28;20041;-59
2022/01/16 09:28:52;;;;;;;32.88;13.50;;;;;;;3.00;100.00;98703.47;5040367;28;20115;-59
2022/01/16 09:31:18;;;;;;;37.47;14.68;;;;;;;2.66;100.00;98708.56;5039267;28;20497;-59
2022/01/16 09:33:43;;;;;;;39.95;15.52;;;;;;;3.21;100.00;98712.91;5039347;28;20070;-60
2022/01/16 09:36:09;;;;;;;40.65;16.27;;;;;;;3.19;100.00;98718.06;5038517;28;20033;-58
2022/01/16 09:38:38;;;;;;;34.63;13.55;;;;;;;3.47;100.00;98706.03;5038783;28;20363;-58
2022/01/16 09:41:05;;;;;;;36.55;13.90;;;;;;;3.83;100.00;98711.13;5038770;28;20570;-59
2022/01/16 09:43:32;;;;;;;31.45;12.80;;;;;;;4.47;100.00;98720.34;5038683;28;20037;-59
2022/01/16 09:45:58;;;;;;;32.95;14.63;;;;;;;3.31;100.00;98716.34;5035814;28;20099;-60
2022/01/16 09:48:24;;;;;;;37.63;15.40;;;;;;;4.16;100.00;98719.63;5036553;28;20139;-60
2022/01/16 09:50:49;;;;;;;38.83;16.63;;;;;;;3.20;100.00;98724.97;5038603;28;20083;-59
2022/01/16 09:53:15;;;;;;;32.83;14.48;;;;;;;3.74;100.00;98713.72;5039143;28;20087;-57
2022/01/16 09:55:40;;;;;;;36.33;14.88;;;;;;;3.67;100.00;98710.28;5039137;28;20083;-57
2022/01/16 09:58:06;;;;;;;42.55;16.70;;;;;;;3.49;100.00;98708.59;5037984;28;20054;-59
2022/01/16 10:00:31;;;;;;;45.03;19.27;;;;;;;3.30;100.00;98712.06;5034980;28;20382;-59
2022/01/16 10:02:57;;;;;;;42.13;16.92;;;;;;;3.99;100.00;98722.28;5035293;28;20064;-59
2022/01/16 10:05:25;;;;;;;43.17;14.57;;;;;;;4.92;100.00;98723.53;5035700;28;20041;-60
2022/01/16 10:07:51;;;;;;;41.53;13.05;;;;;;;5.15;100.00;98720.78;5035918;28;20032;-59
2022/01/16 10:10:17;;;;;;;34.70;15.15;;;;;;;5.86;100.00;98725.31;5040652;28;20247;-63
2022/01/16 10:12:54;;;;;;;21.45;8.63;;;;;;;6.18;100.00;98724.16;5041678;28;20664;-61
2022/01/16 10:15:20;;;;;;;25.58;11.93;;;;;;;5.97;100.00;98718.34;5040416;28;20467;-61
2022/01/16 10:17:49;;;;;;;38.33;17.13;;;;;;;4.37;100.00;98706.59;5040969;28;20044;-55
2022/01/16 10:20:17;;;;;;;39.00;19.15;;;;;;;6.14;100.00;98706.94;5038166;28;20143;-58
2022/01/16 10:22:47;;;;;;;48.88;22.88;;;;;;;4.15;100.00;98700.69;5036968;28;20116;-56
2022/01/16 10:25:14;;;;;;;39.47;17.95;;;;;;;5.22;100.00;98706.94;5037791;28;20025;-57
2022/01/16 10:27:43;;;;;;;23.27;10.98;;;;;;;6.01;100.00;98707.94;5038437;28;20544;-56
2022/01/16 10:30:14;;;;;;;24.02;10.52;;;;;;;8.68;100.00;98713.09;5039056;28;20037;-56
2022/01/16 10:32:44;;;;;;;27.67;12.82;;;;;;;6.85;100.00;98699.06;5036133;28;20025;-55
2022/01/16 10:35:20;;;;;;;22.55;10.98;;;;;;;7.67;100.00;98705.53;5037664;28;20028;-56
2022/01/16 10:37:52;;;;;;;21.25;9.50;;;;;;;6.05;100.00;98694.09;5040157;28;20017;-57
2022/01/16 10:40:24;;;;;;;21.88;10.50;;;;;;;11.08;100.00;98705.84;5035651;28;20082;-56
2022/01/16 10:42:57;;;;;;;19.00;9.97;;;;;;;11.22;100.00;98693.19;5035582;28;20151;-57
2022/01/16 10:45:28;;;;;;;21.08;10.40;;;;;;;9.41;100.00;98684.47;5033120;28;20287;-57
2022/01/16 10:47:57;;;;;;;20.23;10.15;;;;;;;8.17;100.00;98695.91;5033138;28;20692;-59
2022/01/16 10:50:33;;;;;;;29.65;14.75;;;;;;;7.80;100.00;98707.00;5037371;28;20025;-59
2022/01/16 10:53:13;;;;;;;10.93;5.57;;;;;;;12.03;100.00;98712.28;5038069;28;20108;-58
2022/01/16 10:55:48;;;;;;;18.73;10.18;;;;;;;10.32;100.00;98715.94;5035676;28;20044;-56
2022/01/16 10:58:15;;;;;;;38.83;20.90;;;;;;;6.02;100.00;98705.34;5038283;28;20025;-55
2022/01/16 11:00:51;;;;;;;11.68;5.60;;;;;;;7.93;100.00;98727.56;5037288;28;20029;-59
2022/01/16 11:03:17;;;;;;;22.52;10.63;;;;;;;7.83;100.00;98722.56;5037909;28;20135;-56
2022/01/16 11:05:44;;;;;;;19.15;10.55;;;;;;;8.85;100.00;98720.50;5049376;28;20119;-57
2022/01/16 11:08:12;;;;;;;10.57;5.53;;;;;;;10.30;100.00;98719.47;5037247;28;20727;-60
2022/01/16 11:10:39;;;;;;;29.30;15.00;;;;;;;8.26;100.00;98706.13;5037259;28;20033;-59
2022/01/16 11:13:13;;;;;;;14.85;7.93;;;;;;;8.58;100.00;98728.00;5037332;28;20025;-59
2022/01/16 11:15:42;;;;;;;26.38;13.63;;;;;;;8.74;100.00;98712.94;5037214;28;20112;-62
2022/01/16 11:18:10;;;;;;;24.13;11.05;;;;;;;10.12;100.00;98719.06;5036805;28;20030;-61
2022/01/16 11:20:37;;;;;;;8.98;4.88;;;;;;;9.51;100.00;98731.97;5036844;28;20709;-60
2022/01/16 11:23:16;;;;;;;13.57;7.28;;;;;;;10.32;100.00;98726.38;5036962;28;20067;-61
2022/01/16 11:25:44;;;;;;;22.13;12.50;;;;;;;6.98;100.00;98717.88;5037055;28;20025;-59
2022/01/16 11:28:18;;;;;;;24.17;12.70;;;;;;;6.35;100.00;98739.50;5037130;28;20033;-60
2022/01/16 11:30:49;;;;;;;9.15;5.25;;;;;;;10.72;100.00;98747.84;5036957;28;20068;-61
2022/01/16 11:33:16;;;;;;;9.33;5.27;;;;;;;10.75;100.00;98752.94;5036572;28;20025;-60
2022/01/16 11:35:48;;;;;;;11.13;5.20;;;;;;;10.19;100.00;98753.66;5036618;28;20040;-60
2022/01/16 11:38:15;;;;;;;8.48;4.72;;;;;;;11.85;100.00;98751.19;5035553;28;20060;-61
2022/01/16 11:40:47;;;;;;;10.82;6.43;;;;;;;10.14;100.00;98748.56;5035812;28;20060;-56
2022/01/16 11:43:23;;;;;;;16.33;9.10;;;;;;;10.89;100.00;98765.59;5036233;28;20036;-57
2022/01/16 11:46:06;;;;;;;13.75;7.63;;;;;;;10.21;100.00;98762.28;5036421;28;20040;-57
2022/01/16 11:49:01;;;;;;;7.10;4.20;;;;;;;12.14;100.00;98768.50;5037474;28;20090;-56
2022/01/16 11:51:36;;;;;;;14.15;7.93;;;;;;;9.07;100.00;98757.31;5028059;28;20108;-57
2022/01/16 11:54:01;;;;;;;9.88;5.85;;;;;;;9.27;100.00;98775.06;5036847;28;20028;-58
2022/01/16 11:56:42;;;;;;;10.90;6.45;;;;;;;7.84;100.00;98770.16;5036188;28;20051;-54
2022/01/16 11:59:10;;;;;;;24.13;12.00;;;;;;;4.16;100.00;98776.44;5037146;28;20047;-57
2022/01/16 12:01:45;;;;;;;12.98;5.47;;;;;;;5.42;100.00;98775.75;5036148;28;20041;-58
2022/01/16 12:04:28;;;;;;;13.52;6.15;;;;;;;6.43;100.00;98781.72;5036881;28;20098;-56